createdAt,value
2023-05-08T00:01:06.391Z,48.00
2023-05-08T00:03:33.839Z,48.10
2023-05-08T00:06:04.928Z,48.00
2023-05-08T00:08:32.000Z,48.10
2023-05-08T00:10:59.088Z,48.10
2023-05-08T00:13:26.291Z,48.00
2023-05-08T00:15:53.405Z,48.00
2023-05-08T00:18:20.479Z,48.00
2023-05-08T00:20:47.526Z,48.60
2023-05-08T00:23:14.592Z,48.00
2023-05-08T00:25:41.718Z,48.00
2023-05-08T00:28:08.799Z,48.00
2023-05-08T00:30:35.934Z,48.00
2023-05-08T00:33:03.178Z,48.00
2023-05-08T00:35:30.369Z,48.00
2023-05-08T00:37:57.398Z,48.00
2023-05-08T00:40:24.569Z,48.00
2023-05-08T00:42:51.980Z,48.00
2023-05-08T00:45:19.144Z,48.00
2023-05-08T00:47:46.322Z,48.10
2023-05-08T00:50:14.452Z,48.10
2023-05-08T00:52:42.558Z,48.20
2023-05-08T00:55:10.154Z,48.20
2023-05-08T00:57:37.982Z,48.20
2023-05-08T01:00:06.074Z,48.20
2023-05-08T01:02:34.114Z,48.30
2023-05-08T01:05:01.281Z,48.20
2023-05-08T01:07:28.649Z,48.20
2023-05-08T01:09:55.969Z,48.10
2023-05-08T01:12:56.857Z,48.10
2023-05-08T01:15:54.820Z,48.10
2023-05-08T01:18:36.519Z,48.20
2023-05-08T01:21:24.975Z,48.10
2023-05-08T01:24:20.219Z,48.10
2023-05-08T01:27:19.148Z,48.10
2023-05-08T01:30:26.145Z,48.10
2023-05-08T01:33:01.095Z,48.10
2023-05-08T01:35:33.041Z,48.10
2023-05-08T01:38:07.826Z,48.10
2023-05-08T01:40:45.159Z,48.10
2023-05-08T01:43:30.168Z,48.00
2023-05-08T01:45:59.582Z,48.10
2023-05-08T01:48:43.308Z,48.00
2023-05-08T01:51:18.237Z,48.10
2023-05-08T01:53:51.328Z,48.10
2023-05-08T01:56:23.067Z,48.00
2023-05-08T01:58:53.198Z,48.10
2023-05-08T02:01:24.485Z,48.00
2023-05-08T02:03:54.055Z,48.00
2023-05-08T02:06:22.889Z,48.00
2023-05-08T02:08:51.636Z,48.00
2023-05-08T02:11:19.879Z,48.00
2023-05-08T02:13:49.121Z,48.00
2023-05-08T02:16:18.047Z,48.10
2023-05-08T02:18:53.155Z,48.10
2023-05-08T02:21:22.358Z,48.20
2023-05-08T02:23:50.816Z,48.20
2023-05-08T02:26:19.050Z,48.20
2023-05-08T02:28:47.177Z,48.30
2023-05-08T02:31:15.404Z,48.30
2023-05-08T02:33:44.242Z,48.20
2023-05-08T02:36:14.040Z,48.20
2023-05-08T02:38:44.321Z,48.20
2023-05-08T02:41:12.488Z,48.10
2023-05-08T02:43:39.970Z,48.10
2023-05-08T02:46:17.168Z,48.10
2023-05-08T02:49:09.293Z,48.10
2023-05-08T02:51:57.716Z,48.00
2023-05-08T02:54:43.550Z,48.00
2023-05-08T02:57:43.284Z,48.00
2023-05-08T03:00:22.649Z,48.00
2023-05-08T03:03:21.521Z,47.90
2023-05-08T03:05:53.810Z,47.90
2023-05-08T03:08:31.051Z,47.90
2023-05-08T03:11:02.936Z,47.90
2023-05-08T03:13:34.665Z,47.90
2023-05-08T03:16:04.658Z,47.90
2023-05-08T03:18:36.378Z,47.90
2023-05-08T03:21:05.810Z,47.90
2023-05-08T03:23:35.477Z,47.90
2023-05-08T03:26:04.859Z,47.90
2023-05-08T03:28:33.032Z,47.90
2023-05-08T03:31:03.006Z,48.00
2023-05-08T03:33:32.520Z,47.90
2023-05-08T03:36:00.200Z,47.90
2023-05-08T03:38:27.611Z,48.00
2023-05-08T03:40:54.765Z,47.90
2023-05-08T03:43:22.425Z,48.00
2023-05-08T03:45:50.719Z,48.00
2023-05-08T03:48:19.430Z,48.10
2023-05-08T03:50:47.553Z,48.10
2023-05-08T03:53:14.980Z,48.10
2023-05-08T03:55:42.136Z,48.20
2023-05-08T03:58:24.666Z,48.10
2023-05-08T04:01:20.553Z,48.10
2023-05-08T04:04:03.145Z,48.00
2023-05-08T04:06:51.352Z,48.00
2023-05-08T04:09:31.525Z,48.00
2023-05-08T04:12:05.626Z,47.80
2023-05-08T04:14:43.380Z,47.80
2023-05-08T04:17:12.316Z,47.70
2023-05-08T04:19:45.360Z,47.70
2023-05-08T04:22:13.151Z,47.60
2023-05-08T04:24:44.806Z,47.60
2023-05-08T04:27:13.463Z,47.60
2023-05-08T04:29:41.021Z,47.50
2023-05-08T04:32:09.421Z,47.50
2023-05-08T04:34:37.414Z,47.50
2023-05-08T04:37:07.676Z,47.20
2023-05-08T04:39:34.574Z,46.80
2023-05-08T04:42:06.160Z,46.70
2023-05-08T04:44:33.230Z,46.50
2023-05-08T04:47:00.309Z,46.50
2023-05-08T04:49:27.471Z,46.40
2023-05-08T04:51:54.547Z,46.40
2023-05-08T04:54:21.667Z,46.20
2023-05-08T04:56:48.828Z,46.00
2023-05-08T04:59:16.168Z,45.90
2023-05-08T05:01:43.502Z,45.70
2023-05-08T05:04:10.666Z,45.60
2023-05-08T05:06:37.830Z,45.30
2023-05-08T05:09:05.464Z,45.30
2023-05-08T05:11:32.541Z,45.10
2023-05-08T05:13:59.867Z,45.00
2023-05-08T05:16:27.577Z,44.80
2023-05-08T05:18:55.191Z,44.20
2023-05-08T05:21:22.269Z,43.30
2023-05-08T05:23:49.504Z,42.90
2023-05-08T05:26:16.665Z,42.80
2023-05-08T05:28:43.772Z,43.20
2023-05-08T05:31:11.578Z,41.90
2023-05-08T05:33:38.689Z,42.80
2023-05-08T05:36:06.131Z,43.00
2023-05-08T05:38:33.449Z,42.90
2023-05-08T05:41:00.767Z,43.20
2023-05-08T05:43:28.689Z,43.30
2023-05-08T05:45:59.039Z,40.30
2023-05-08T05:48:26.068Z,39.30
2023-05-08T05:50:53.280Z,39.50
2023-05-08T05:53:20.434Z,40.40
2023-05-08T05:55:48.109Z,39.60
2023-05-08T05:58:16.894Z,39.10
2023-05-08T06:00:44.512Z,39.80
2023-05-08T06:03:11.748Z,39.60
2023-05-08T06:05:39.362Z,40.50
2023-05-08T06:08:08.781Z,41.00
2023-05-08T06:10:36.532Z,42.20
2023-05-08T06:13:03.767Z,42.70
2023-05-08T06:15:30.945Z,42.50
2023-05-08T06:17:58.510Z,43.00
2023-05-08T06:20:26.578Z,42.60
2023-05-08T06:22:53.935Z,41.50
2023-05-08T06:25:21.098Z,41.40
2023-05-08T06:27:48.142Z,41.30
2023-05-08T06:30:15.415Z,42.00
2023-05-08T06:32:42.958Z,41.70
2023-05-08T06:35:10.625Z,40.80
2023-05-08T06:37:37.901Z,39.60
2023-05-08T06:40:14.253Z,39.50
2023-05-08T06:42:41.667Z,40.20
2023-05-08T06:45:09.810Z,40.50
2023-05-08T06:47:37.120Z,40.60
2023-05-08T06:50:04.817Z,40.10
2023-05-08T06:52:33.573Z,41.00
2023-05-08T06:55:01.358Z,41.10
2023-05-08T06:57:30.448Z,42.00
2023-05-08T06:59:57.652Z,42.20
2023-05-08T07:02:24.761Z,42.90
2023-05-08T07:04:51.895Z,42.30
2023-05-08T07:07:19.745Z,42.50
2023-05-08T07:09:49.954Z,42.40
2023-05-08T07:12:16.967Z,42.30
2023-05-08T07:14:44.093Z,42.30
2023-05-08T07:17:11.216Z,42.50
2023-05-08T07:19:39.600Z,42.60
2023-05-08T07:22:06.941Z,42.70
2023-05-08T07:24:34.194Z,42.60
2023-05-08T07:27:01.427Z,42.60
2023-05-08T07:29:28.483Z,42.50
2023-05-08T07:31:56.493Z,42.40
2023-05-08T07:34:23.657Z,42.20
2023-05-08T07:36:50.731Z,42.20
2023-05-08T07:39:18.091Z,42.10
2023-05-08T07:41:46.777Z,41.90
2023-05-08T07:44:16.167Z,41.90
2023-05-08T07:46:43.287Z,41.80
2023-05-08T07:49:10.410Z,41.70
2023-05-08T07:51:37.660Z,41.30
2023-05-08T07:54:04.845Z,41.20
2023-05-08T07:56:32.837Z,41.00
2023-05-08T07:59:00.305Z,40.90
2023-05-08T08:01:27.540Z,40.80
2023-05-08T08:03:54.667Z,41.10
2023-05-08T08:06:21.956Z,40.80
2023-05-08T08:08:49.663Z,41.00
2023-05-08T08:11:16.768Z,41.10
2023-05-08T08:13:44.095Z,41.00
2023-05-08T08:16:11.501Z,41.00
2023-05-08T08:18:40.026Z,40.80
2023-05-08T08:21:07.918Z,41.10
2023-05-08T08:23:35.329Z,41.10
2023-05-08T08:26:02.450Z,40.90
2023-05-08T08:28:29.858Z,40.70
2023-05-08T08:30:57.009Z,40.50
2023-05-08T08:33:24.680Z,40.30
2023-05-08T08:35:51.730Z,40.20
2023-05-08T08:38:19.087Z,40.10
2023-05-08T08:40:46.519Z,40.10
2023-05-08T08:43:14.327Z,40.10
2023-05-08T08:45:42.099Z,40.00
2023-05-08T08:48:12.596Z,40.00
2023-05-08T08:50:46.059Z,40.00
2023-05-08T08:53:27.733Z,39.80
2023-05-08T08:55:57.422Z,39.80
2023-05-08T08:58:39.263Z,39.80
2023-05-08T09:01:09.625Z,39.60
2023-05-08T09:03:36.778Z,39.70
2023-05-08T09:06:04.935Z,39.50
2023-05-08T09:08:32.884Z,39.40
2023-05-08T09:11:02.484Z,39.20
2023-05-08T09:13:30.399Z,39.20
2023-05-08T09:16:01.348Z,39.10
2023-05-08T09:18:28.559Z,39.00
2023-05-08T09:20:56.259Z,38.90
2023-05-08T09:23:23.470Z,38.90
2023-05-08T09:25:50.892Z,38.90
2023-05-08T09:28:25.151Z,39.00
2023-05-08T09:30:55.410Z,39.00
2023-05-08T09:33:24.306Z,39.10
2023-05-08T09:35:51.562Z,39.10
2023-05-08T09:38:39.438Z,39.10
2023-05-08T09:41:16.682Z,39.20
2023-05-08T09:43:45.191Z,39.20
2023-05-08T09:46:27.096Z,39.10
2023-05-08T09:48:59.914Z,39.20
2023-05-08T09:51:28.611Z,39.20
2023-05-08T09:53:57.940Z,39.10
2023-05-08T09:56:37.610Z,39.10
2023-05-08T09:59:21.808Z,39.20
2023-05-08T10:01:49.201Z,39.10
2023-05-08T10:04:16.398Z,39.10
2023-05-08T10:06:43.731Z,38.90
2023-05-08T10:42:03.821Z,38.60
2023-05-08T10:44:32.167Z,38.70
2023-05-08T10:47:26.688Z,38.70
2023-05-08T10:50:22.570Z,38.60
2023-05-08T10:56:42.657Z,38.10
2023-05-08T10:59:20.794Z,38.00
2023-05-08T11:01:49.571Z,37.90
2023-05-08T11:04:24.205Z,38.00
2023-05-08T11:06:54.462Z,38.10
2023-05-08T11:09:41.274Z,38.00
2023-05-08T11:12:20.797Z,38.00
2023-05-08T11:15:04.475Z,37.90
2023-05-08T11:17:31.755Z,37.90
2023-05-08T11:20:03.803Z,37.80
2023-05-08T11:22:33.211Z,37.30
2023-05-08T11:25:05.053Z,36.40
2023-05-08T11:28:03.984Z,35.40
2023-05-08T11:30:36.777Z,36.10
2023-05-08T11:33:14.905Z,36.10
2023-05-08T11:35:58.094Z,35.50
2023-05-08T11:38:38.597Z,34.90
2023-05-08T11:41:09.268Z,34.80
2023-05-08T11:43:51.146Z,34.50
2023-05-08T11:46:22.180Z,35.30
2023-05-08T11:48:49.867Z,35.90
2023-05-08T11:51:20.036Z,35.40
2023-05-08T11:53:47.597Z,35.40
2023-05-08T11:56:15.059Z,35.90
2023-05-08T11:58:43.561Z,36.50
2023-05-08T12:01:10.755Z,36.80
2023-05-08T12:03:38.327Z,37.10
2023-05-08T12:06:06.094Z,37.20
2023-05-08T12:08:39.127Z,37.40
2023-05-08T12:11:06.300Z,37.40
2023-05-08T12:13:33.510Z,37.30
2023-05-08T12:16:01.512Z,37.40
2023-05-08T12:18:30.667Z,37.50
2023-05-08T12:20:59.806Z,37.40
2023-05-08T12:23:29.650Z,37.40
2023-05-08T12:26:01.241Z,37.40
2023-05-08T12:28:29.020Z,37.30
2023-05-08T12:30:56.726Z,37.30
2023-05-08T12:33:24.856Z,37.40
2023-05-08T12:35:52.226Z,37.40
2023-05-08T12:38:19.423Z,37.60
2023-05-08T12:40:50.172Z,37.60
2023-05-08T12:43:17.348Z,37.70
2023-05-08T12:45:44.677Z,37.60
2023-05-08T12:48:18.652Z,37.60
2023-05-08T12:50:47.411Z,37.80
2023-05-08T12:53:19.518Z,37.90
2023-05-08T12:55:55.515Z,37.80
2023-05-08T12:58:28.545Z,37.90
2023-05-08T13:01:06.595Z,37.80
2023-05-08T13:03:34.443Z,37.80
2023-05-08T13:06:01.736Z,37.80
2023-05-08T13:08:35.049Z,37.80
2023-05-08T13:11:04.970Z,37.60
2023-05-08T13:13:34.348Z,37.20
2023-05-08T13:16:07.090Z,37.10
2023-05-08T13:18:36.959Z,36.70
2023-05-08T13:21:05.101Z,36.60
2023-05-08T13:23:32.314Z,36.70
2023-05-08T13:25:59.482Z,36.70
2023-05-08T13:28:26.683Z,36.80
2023-05-08T13:30:53.972Z,36.60
2023-05-08T13:33:22.207Z,36.70
2023-05-08T13:35:49.709Z,35.90
2023-05-08T13:38:16.862Z,36.10
2023-05-08T13:40:43.988Z,36.10
2023-05-08T13:43:11.168Z,36.30
2023-05-08T13:45:38.331Z,36.60
2023-05-08T13:48:05.731Z,36.20
2023-05-08T13:50:32.918Z,35.80
2023-05-08T13:53:01.292Z,35.90
2023-05-08T13:55:28.533Z,36.00
2023-05-08T13:57:57.135Z,36.50
2023-05-08T14:00:26.002Z,35.80
2023-05-08T14:02:55.175Z,35.70
2023-05-08T14:05:22.567Z,36.20
2023-05-08T14:07:49.635Z,36.50
2023-05-08T14:10:17.402Z,36.70
2023-05-08T14:12:44.724Z,36.80
2023-05-08T14:15:14.170Z,36.70
2023-05-08T14:17:42.502Z,36.50
2023-05-08T14:20:12.050Z,36.60
2023-05-08T14:22:39.744Z,36.60
2023-05-08T14:25:07.701Z,36.90
2023-05-08T14:27:34.895Z,36.80
2023-05-08T14:30:02.160Z,36.70
2023-05-08T14:32:29.647Z,36.70
2023-05-08T14:34:56.754Z,37.10
2023-05-08T14:37:23.961Z,36.90
2023-05-08T14:39:54.237Z,36.80
2023-05-08T14:42:23.417Z,37.00
2023-05-08T14:44:51.288Z,37.20
2023-05-08T14:47:18.561Z,37.40
2023-05-08T14:49:45.715Z,37.40
2023-05-08T14:52:12.835Z,37.60
2023-05-08T14:54:41.033Z,37.80
2023-05-08T14:57:08.229Z,37.80
2023-05-08T14:59:35.293Z,37.90
2023-05-08T15:02:02.619Z,38.00
2023-05-08T15:04:29.979Z,38.10
2023-05-08T15:06:57.073Z,38.30
2023-05-08T15:09:24.161Z,38.40
2023-05-08T15:11:51.302Z,38.60
2023-05-08T15:14:18.450Z,38.50
2023-05-08T15:16:45.737Z,38.70
2023-05-08T15:19:12.956Z,39.30
2023-05-08T15:21:40.047Z,39.80
2023-05-08T15:24:07.703Z,39.60
2023-05-08T15:26:34.943Z,39.30
2023-05-08T15:29:01.996Z,39.50
2023-05-08T15:31:29.140Z,39.50
2023-05-08T15:33:56.230Z,39.60
2023-05-08T15:36:23.372Z,39.50
2023-05-08T15:38:50.901Z,39.50
2023-05-08T15:41:18.028Z,39.40
2023-05-08T15:43:45.700Z,39.50
2023-05-08T15:46:12.865Z,39.40
2023-05-08T15:48:40.099Z,39.40
2023-05-08T15:51:07.367Z,39.40
2023-05-08T15:53:35.479Z,39.40
2023-05-08T15:56:02.742Z,39.70
2023-05-08T15:58:29.913Z,40.10
2023-05-08T16:00:57.828Z,40.50
2023-05-08T16:03:25.084Z,40.70
2023-05-08T16:05:52.312Z,40.80
2023-05-08T16:08:19.408Z,40.90
2023-05-08T16:10:46.734Z,40.80
2023-05-08T16:13:13.846Z,40.80
2023-05-08T16:15:41.262Z,40.60
2023-05-08T16:18:08.459Z,41.00
2023-05-08T16:20:36.367Z,40.90
2023-05-08T16:23:03.913Z,40.80
2023-05-08T16:25:31.404Z,40.70
2023-05-08T16:27:58.858Z,40.80
2023-05-08T16:30:26.009Z,40.80
2023-05-08T16:32:53.180Z,40.70
2023-05-08T16:35:20.593Z,41.20
2023-05-08T16:37:47.860Z,46.00
2023-05-08T16:40:15.137Z,48.20
2023-05-08T16:42:44.451Z,49.30
2023-05-08T16:45:12.396Z,50.20
2023-05-08T16:47:39.766Z,50.00
2023-05-08T16:50:07.547Z,48.50
2023-05-08T16:52:34.757Z,47.00
2023-05-08T16:55:02.053Z,45.60
2023-05-08T16:57:29.330Z,44.50
2023-05-08T16:59:56.564Z,43.70
2023-05-08T17:02:23.784Z,43.20
2023-05-08T17:04:51.004Z,42.80
2023-05-08T17:07:18.623Z,42.60
2023-05-08T17:09:48.484Z,42.50
2023-05-08T17:12:15.702Z,42.50
2023-05-08T17:14:42.795Z,42.70
2023-05-08T17:17:09.987Z,42.70
2023-05-08T17:19:37.143Z,42.70
2023-05-08T17:22:04.391Z,42.70
2023-05-08T17:24:32.729Z,42.70
2023-05-08T17:27:00.036Z,42.90
2023-05-08T17:29:27.333Z,43.10
2023-05-08T17:31:54.569Z,43.10
2023-05-08T17:34:22.991Z,43.10
2023-05-08T17:36:50.454Z,43.10
2023-05-08T17:39:21.143Z,43.10
2023-05-08T17:41:52.330Z,43.20
2023-05-08T17:44:19.424Z,43.20
2023-05-08T17:46:46.681Z,43.80
2023-05-08T17:49:15.872Z,43.30
2023-05-08T17:51:44.245Z,43.30
2023-05-08T17:54:11.721Z,43.30
2023-05-08T17:56:38.929Z,43.30
2023-05-08T17:59:06.330Z,43.30
2023-05-08T18:01:33.426Z,43.20
2023-05-08T18:04:00.857Z,43.20
2023-05-08T18:06:27.998Z,43.20
2023-05-08T18:08:55.121Z,43.20
2023-05-08T18:11:24.680Z,43.20
2023-05-08T18:13:53.874Z,43.10
2023-05-08T18:16:22.105Z,43.20
2023-05-08T18:18:50.249Z,43.20
2023-05-08T18:21:17.461Z,43.20
2023-05-08T18:23:44.669Z,43.10
2023-05-08T18:26:16.409Z,43.10
2023-05-08T18:28:44.554Z,43.10
2023-05-08T18:31:12.358Z,43.10
2023-05-08T18:33:39.739Z,43.10
2023-05-08T18:36:07.360Z,43.10
2023-05-08T18:38:35.325Z,43.30
2023-05-08T18:41:06.394Z,43.10
2023-05-08T18:43:33.917Z,43.10
2023-05-08T18:46:07.278Z,43.10
2023-05-08T18:48:34.418Z,43.10
2023-05-08T18:51:01.628Z,43.20
2023-05-08T18:53:30.611Z,43.20
2023-05-08T18:55:58.028Z,43.30
2023-05-08T18:58:25.202Z,43.30
2023-05-08T19:00:56.369Z,43.30
2023-05-08T19:03:24.511Z,43.30
2023-05-08T19:05:51.959Z,43.40
2023-05-08T19:08:19.135Z,43.40
2023-05-08T19:10:47.480Z,43.40
2023-05-08T19:13:14.871Z,43.40
2023-05-08T19:15:42.132Z,43.50
2023-05-08T19:18:09.347Z,43.50
2023-05-08T19:20:36.419Z,43.50
2023-05-08T19:23:03.548Z,43.60
2023-05-08T19:25:30.647Z,43.60
2023-05-08T19:27:58.839Z,43.70
2023-05-08T19:30:25.972Z,43.70
2023-05-08T19:32:53.078Z,43.60
2023-05-08T19:35:21.082Z,43.70
2023-05-08T19:37:48.224Z,43.70
2023-05-08T19:40:16.571Z,43.70
2023-05-08T19:42:45.777Z,43.70
2023-05-08T19:45:13.767Z,43.70
2023-05-08T19:47:41.024Z,43.70
2023-05-08T19:50:08.771Z,43.80
2023-05-08T19:52:36.108Z,43.80
2023-05-08T19:55:03.396Z,43.70
2023-05-08T19:57:30.564Z,43.80
2023-05-08T19:59:57.719Z,43.80
2023-05-08T20:02:24.885Z,43.80
2023-05-08T20:05:18.598Z,43.80
2023-05-08T20:07:39.213Z,43.80
2023-05-08T20:10:07.099Z,43.80
2023-05-08T20:12:34.237Z,43.90
2023-05-08T20:15:01.320Z,43.90
2023-05-08T20:17:28.573Z,43.90
2023-05-08T20:19:55.763Z,43.90
2023-05-08T20:22:22.905Z,44.00
2023-05-08T20:24:50.088Z,44.00
2023-05-08T20:27:17.229Z,44.00
2023-05-08T20:29:45.425Z,44.00
2023-05-08T20:32:14.991Z,44.00
2023-05-08T20:34:42.242Z,44.10
2023-05-08T20:37:10.072Z,44.00
2023-05-08T20:39:37.158Z,44.10
2023-05-08T20:42:04.331Z,44.10
2023-05-08T20:44:31.550Z,44.10
2023-05-08T20:46:58.735Z,44.20
2023-05-08T20:49:26.338Z,44.20
2023-05-08T20:51:53.437Z,44.30
2023-05-08T20:54:21.554Z,44.30
2023-05-08T20:56:48.684Z,44.30
2023-05-08T20:59:16.809Z,44.30
2023-05-08T21:01:43.891Z,44.30
2023-05-08T21:04:11.177Z,44.30
2023-05-08T21:06:38.302Z,44.30
2023-05-08T21:09:07.049Z,44.30
2023-05-08T21:11:34.433Z,44.30
2023-05-08T21:14:01.605Z,44.40
2023-05-08T21:16:28.773Z,44.40
2023-05-08T21:18:58.178Z,44.40
2023-05-08T21:21:25.738Z,44.40
2023-05-08T21:23:53.050Z,44.40
2023-05-08T21:26:23.537Z,44.40
2023-05-08T21:28:52.733Z,44.40
2023-05-08T21:31:20.107Z,44.40
2023-05-08T21:33:47.558Z,44.40
2023-05-08T21:36:14.740Z,44.40
2023-05-08T21:38:42.123Z,44.40
2023-05-08T21:41:09.369Z,44.40
2023-05-08T21:43:37.342Z,44.40
2023-05-08T21:46:06.100Z,44.40
2023-05-08T21:48:34.173Z,44.40
2023-05-08T21:51:01.639Z,44.40
2023-05-08T21:53:29.049Z,44.50
2023-05-08T21:55:56.195Z,44.40
2023-05-08T21:58:23.257Z,44.50
2023-05-08T22:00:50.408Z,45.00
2023-05-08T22:03:18.470Z,44.40
2023-05-08T22:05:45.610Z,44.50
2023-05-08T22:08:12.788Z,44.50
2023-05-08T22:10:40.227Z,44.50
2023-05-08T22:13:07.713Z,44.60
2023-05-08T22:15:35.194Z,44.60
2023-05-08T22:18:02.997Z,44.60
2023-05-08T22:20:30.471Z,44.70
2023-05-08T22:22:57.629Z,44.70
2023-05-08T22:25:25.777Z,44.80
2023-05-08T22:27:53.059Z,44.80
2023-05-08T22:30:20.328Z,44.80
2023-05-08T22:32:57.282Z,44.70
2023-05-08T22:35:25.748Z,44.70
2023-05-08T22:37:53.645Z,44.70
2023-05-08T22:40:22.179Z,44.70
2023-05-08T22:42:51.633Z,44.70
2023-05-08T22:45:19.391Z,45.20
2023-05-08T22:47:46.843Z,44.60
2023-05-08T22:50:14.246Z,44.60
2023-05-08T22:52:41.394Z,44.60
2023-05-08T22:55:09.041Z,44.60
2023-05-08T22:57:36.322Z,44.60
2023-05-08T23:00:03.653Z,44.60
2023-05-08T23:02:35.245Z,44.60
2023-05-08T23:05:02.868Z,44.60
2023-05-08T23:07:30.060Z,44.60
2023-05-08T23:09:57.235Z,44.60
2023-05-08T23:12:24.413Z,44.70
2023-05-08T23:14:52.348Z,44.60
2023-05-08T23:17:19.563Z,44.60
2023-05-08T23:19:46.704Z,44.60
2023-05-08T23:22:13.846Z,44.70
2023-05-08T23:24:40.970Z,44.70
2023-05-08T23:27:08.134Z,44.60
2023-05-08T23:29:35.197Z,44.60
2023-05-08T23:32:02.295Z,44.70
2023-05-08T23:34:29.400Z,44.80
2023-05-08T23:36:56.478Z,44.80
2023-05-08T23:39:23.682Z,44.90
2023-05-08T23:41:50.778Z,44.90
2023-05-08T23:44:18.104Z,44.90
2023-05-08T23:46:46.356Z,44.90
2023-05-08T23:49:13.511Z,45.00
2023-05-08T23:51:40.578Z,45.00
2023-05-08T23:54:07.758Z,45.00
2023-05-08T23:56:34.890Z,45.00
2023-05-08T23:59:02.041Z,44.90
